Time;durP1;ratioP1;P1;durP2;ratioP2;P2;SDS_P1;SDS_P2;PMS_P1;PMS_P2;Temp;Humidity;BMP_temperature;BMP_pressure;BME280_temperature;BME280_humidity;BME280_pressure;Samples;Min_cycle;Max_cycle;Signal;HPM_P1;HPM_P2
2022/10/07 13:20:21;;;;;;;5.20;1.30;;;;;;;20.00;37.40;95643.38;4934110;29;20342;-81
2022/10/07 13:22:48;;;;;;;3.47;1.60;;;;;;;19.85;37.73;95631.47;4949919;29;20317;-79
2022/10/07 13:25:18;;;;;;;1.73;1.58;;;;;;;19.92;37.20;95631.28;4952771;29;20185;-80
2022/10/07 13:27:55;;;;;;;2.50;1.23;;;;;;;19.77;37.63;95612.41;4953147;29;20252;-81
2022/10/07 13:30:39;;;;;;;3.60;1.60;;;;;;;19.75;37.84;95615.31;4952901;29;20643;-81
2022/10/07 13:33:29;;;;;;;3.22;1.45;;;;;;;19.91;38.89;95637.66;4953465;29;20159;-80
2022/10/07 13:36:08;;;;;;;5.78;1.55;;;;;;;19.87;38.03;95634.72;4953215;29;20163;-80
2022/10/07 13:38:33;;;;;;;3.55;1.33;;;;;;;19.77;38.62;95623.91;4953257;29;20254;-80
2022/10/07 13:41:06;;;;;;;4.63;1.42;;;;;;;19.82;37.98;95637.31;4953066;28;20257;-80
2022/10/07 13:43:34;;;;;;;4.88;1.77;;;;;;;19.74;37.94;95627.06;4947963;29;20174;-79
2022/10/07 13:46:00;;;;;;;2.90;1.27;;;;;;;19.83;37.89;95630.09;4938930;29;20250;-82
2022/10/07 13:48:35;;;;;;;1.83;1.10;;;;;;;19.57;37.69;95594.25;4944446;29;20178;-82
2022/10/07 13:51:01;;;;;;;1.50;1.40;;;;;;;19.57;37.91;95597.72;4945962;29;20170;-79
2022/10/07 13:53:34;;;;;;;2.72;1.70;;;;;;;19.73;38.52;95633.44;4952781;29;20193;-82
2022/10/07 13:56:25;;;;;;;4.07;1.48;;;;;;;19.69;38.95;95629.69;4953333;29;20171;-82
2022/10/07 13:58:53;;;;;;;1.80;1.40;;;;;;;19.68;38.82;95620.03;4950637;29;20563;-82
2022/10/07 14:01:26;;;;;;;2.63;1.35;;;;;;;19.69;38.61;95634.22;4949739;28;20201;-82
2022/10/07 14:04:17;;;;;;;3.92;1.77;;;;;;;19.59;38.51;95613.50;4943009;29;20159;-81
2022/10/07 14:06:47;;;;;;;3.10;1.63;;;;;;;19.61;38.03;95623.94;4948522;29;20615;-82
2022/10/07 14:09:17;;;;;;;5.50;1.40;;;;;;;19.42;38.11;95615.41;4946498;29;20615;-82
2022/10/07 14:11:45;;;;;;;3.33;1.63;;;;;;;19.34;38.28;95613.97;4956980;29;20171;-82
2022/10/07 14:14:20;;;;;;;2.90;1.33;;;;;;;19.28;38.47;95598.13;4951824;29;20222;-82
2022/10/07 14:16:52;;;;;;;3.63;1.80;;;;;;;19.37;38.71;95621.47;4948111;29;20567;-82
2022/10/07 14:19:19;;;;;;;5.32;1.50;;;;;;;19.19;39.21;95611.09;4950779;29;20178;-81
2022/10/07 14:21:45;;;;;;;4.43;1.60;;;;;;;19.17;39.83;95614.00;4950999;29;20226;-81
2022/10/07 14:24:17;;;;;;;1.48;1.38;;;;;;;18.94;39.53;95595.50;4945672;28;20175;-81
2022/10/07 14:26:44;;;;;;;4.47;1.50;;;;;;;18.97;39.70;95608.34;4951319;29;20558;-82
2022/10/07 14:29:28;;;;;;;4.22;1.58;;;;;;;18.85;39.98;95618.31;4948437;29;20192;-82
2022/10/07 14:37:35;;;;;;;3.05;1.65;;;;;;;18.51;40.45;95593.44;4937583;29;20271;-82
2022/10/07 14:40:00;;;;;;;4.03;1.70;;;;;;;18.48;40.60;95605.44;4944885;29;20643;-82
2022/10/07 14:42:31;;;;;;;2.60;1.50;;;;;;;18.30;40.96;95586.19;4947514;29;20254;-83
2022/10/07 14:44:56;;;;;;;4.60;2.03;;;;;;;18.38;41.00;95607.91;4946678;29;20199;-81
2022/10/07 14:47:27;;;;;;;3.10;1.70;;;;;;;18.16;41.12;95574.22;4942741;29;20266;-83
2022/10/07 14:49:57;;;;;;;3.42;2.28;;;;;;;18.21;41.49;95582.28;4944577;29;20178;-84
2022/10/07 14:52:28;;;;;;;2.75;1.65;;;;;;;18.40;41.58;95611.16;4944057;29;20182;-83
2022/10/07 14:54:59;;;;;;;9.80;1.90;;;;;;;18.33;42.02;95609.72;4948187;29;20195;-83
2022/10/07 14:57:25;;;;;;;3.25;1.92;;;;;;;18.18;42.45;95593.41;4949700;29;20211;-84
2022/10/07 14:59:50;;;;;;;2.58;1.60;;;;;;;18.06;42.62;95585.50;4946068;29;20311;-85
2022/10/07 15:02:16;;;;;;;4.75;2.03;;;;;;;17.92;42.91;95568.97;4945228;29;20183;-85
2022/10/07 15:04:44;;;;;;;5.55;1.92;;;;;;;18.15;43.28;95621.38;4944593;29;20182;-83
2022/10/07 15:07:12;;;;;;;5.53;2.17;;;;;;;18.09;43.04;95606.31;4952957;29;20250;-83
2022/10/07 15:09:37;;;;;;;7.72;1.98;;;;;;;18.05;43.67;95610.53;4935639;29;20174;-82
2022/10/07 15:12:03;;;;;;;4.85;2.03;;;;;;;17.97;43.65;95611.72;4949376;29;20172;-83
2022/10/07 15:14:29;;;;;;;4.22;2.00;;;;;;;17.81;43.67;95577.84;4949957;29;20191;-83
2022/10/07 15:16:54;;;;;;;4.35;1.80;;;;;;;17.97;43.73;95605.59;4944562;29;20175;-83
2022/10/07 15:19:20;;;;;;;3.15;2.40;;;;;;;17.79;43.99;95595.09;4955319;29;20205;-83
2022/10/07 15:21:45;;;;;;;6.63;4.28;;;;;;;17.70;44.40;95592.00;4940624;29;20588;-83
2022/10/07 15:24:11;;;;;;;10.73;6.10;;;;;;;17.80;44.78;95618.03;4945700;29;20179;-82
2022/10/07 15:26:37;;;;;;;7.88;1.92;;;;;;;17.70;45.13;95614.13;4947227;28;20218;-84
2022/10/07 15:29:02;;;;;;;7.57;2.63;;;;;;;17.56;45.18;95595.94;4947202;29;20187;-82
2022/10/07 15:31:28;;;;;;;10.80;3.03;;;;;;;17.57;45.23;95584.25;4946569;29;20183;-83
2022/10/07 15:33:56;;;;;;;4.28;2.38;;;;;;;17.45;45.49;95573.66;4946370;29;20195;-82
2022/10/07 15:36:23;;;;;;;7.32;2.15;;;;;;;17.60;45.74;95607.75;4951507;29;20214;-81
2022/10/07 15:38:49;;;;;;;4.05;2.00;;;;;;;17.38;46.26;95594.28;4948013;29;20179;-81
2022/10/07 15:41:28;;;;;;;4.60;2.17;;;;;;;17.41;46.72;95609.75;4954134;29;20258;-81
2022/10/07 15:43:56;;;;;;;7.05;3.13;;;;;;;17.34;47.05;95609.91;4943910;29;20179;-81
2022/10/07 15:46:23;;;;;;;9.02;2.60;;;;;;;17.29;46.90;95603.66;4944407;29;20210;-81
2022/10/07 15:48:54;;;;;;;6.47;2.60;;;;;;;17.16;47.15;95591.41;4942859;29;21005;-81
2022/10/07 15:51:19;;;;;;;2.67;1.95;;;;;;;17.27;47.23;95616.38;4940441;28;20194;-81
2022/10/07 15:53:45;;;;;;;3.95;1.98;;;;;;;17.19;47.46;95611.44;4947258;29;20571;-81
2022/10/07 15:56:10;;;;;;;3.50;2.10;;;;;;;17.23;47.81;95620.53;4947562;29;20272;-81
2022/10/07 15:58:36;;;;;;;3.40;2.08;;;;;;;17.17;47.84;95619.63;4946269;29;20182;-81
2022/10/07 16:01:04;;;;;;;8.85;2.10;;;;;;;17.11;48.24;95620.56;4942736;29;21239;-81
2022/10/07 16:03:38;;;;;;;7.30;2.65;;;;;;;16.94;48.93;95614.34;4940965;29;20474;-82
2022/10/07 16:06:07;;;;;;;4.28;2.05;;;;;;;16.94;49.22;95628.44;4943176;29;20273;-85
2022/10/07 16:08:33;;;;;;;8.38;2.65;;;;;;;16.87;50.21;95632.22;4931306;29;20186;-82
2022/10/07 16:11:04;;;;;;;3.88;2.22;;;;;;;16.86;49.62;95634.13;4948843;29;20199;-80
2022/10/07 16:13:32;;;;;;;9.07;2.85;;;;;;;16.76;50.15;95636.53;4945707;29;20205;-80
2022/10/07 16:16:04;;;;;;;6.60;2.80;;;;;;;16.70;51.16;95634.75;4944966;29;20182;-80
2022/10/07 16:18:39;;;;;;;5.70;2.50;;;;;;;16.64;51.02;95645.50;4948163;29;20233;-80
2022/10/07 16:21:20;;;;;;;3.85;2.60;;;;;;;16.63;50.60;95643.88;4944544;29;20221;-80
2022/10/07 16:23:46;;;;;;;13.98;3.10;;;;;;;16.41;51.83;95628.47;4948575;28;20187;-80
2022/10/07 16:26:18;;;;;;;6.90;3.40;;;;;;;16.43;52.44;95641.53;4942803;29;20610;-80
2022/10/07 16:31:31;;;;;;;29.33;9.85;;;;;;;16.16;54.17;95631.28;4946429;29;20209;-82
2022/10/07 16:33:56;;;;;;;53.40;19.10;;;;;;;16.01;55.24;95638.81;4948521;28;20257;-80
2022/10/07 16:36:24;;;;;;;60.42;20.50;;;;;;;15.95;55.30;95641.56;4945449;28;20478;-80
2022/10/07 16:38:50;;;;;;;52.03;12.93;;;;;;;15.97;57.16;95655.44;4944108;28;20193;-80
2022/10/07 16:41:17;;;;;;;38.38;14.02;;;;;;;15.85;56.84;95650.88;4939916;29;20194;-80
2022/10/07 16:43:43;;;;;;;27.15;8.10;;;;;;;15.73;57.08;95654.53;4943884;29;20193;-80
2022/10/07 16:46:17;;;;;;;31.63;12.18;;;;;;;15.68;58.26;95672.94;4947191;29;20560;-79
2022/10/07 16:48:43;;;;;;;29.77;10.20;;;;;;;15.47;58.87;95647.66;4938096;29;20210;-80
2022/10/07 16:51:16;;;;;;;1025.38;378.80;;;;;;;15.50;59.49;95668.44;4944451;29;20664;-79
2022/10/07 16:53:44;;;;;;;722.42;169.65;;;;;;;15.41;60.52;95670.56;4943957;29;20198;-79
2022/10/07 16:56:10;;;;;;;381.83;202.10;;;;;;;15.22;61.75;95647.69;4941432;29;20191;-79
2022/10/07 16:58:37;;;;;;;454.90;240.00;;;;;;;15.19;61.69;95658.75;4951816;29;20186;-80
2022/10/07 17:01:06;;;;;;;78.45;70.85;;;;;;;15.23;62.56;95678.50;4952878;29;20174;-79
2022/10/07 17:03:33;;;;;;;34.30;15.63;;;;;;;15.09;61.91;95661.09;4947437;29;20576;-80
2022/10/07 17:05:58;;;;;;;31.05;13.13;;;;;;;14.96;62.65;95653.28;4951123;29;20174;-82
2022/10/07 17:08:25;;;;;;;44.13;18.25;;;;;;;14.98;62.96;95667.94;4941472;29;20258;-83
2022/10/07 17:10:50;;;;;;;71.32;24.23;;;;;;;14.88;63.22;95648.22;4927490;29;20237;-81
2022/10/07 17:13:18;;;;;;;45.53;22.00;;;;;;;14.96;63.39;95669.19;4943926;29;20182;-81
2022/10/07 17:15:45;;;;;;;66.47;26.48;;;;;;;14.90;63.91;95665.56;4949175;29;20182;-84
2022/10/07 17:18:11;;;;;;;84.78;28.48;;;;;;;14.90;64.27;95675.34;4949573;29;20540;-83
2022/10/07 17:20:39;;;;;;;40.53;18.98;;;;;;;14.63;65.58;95662.31;4950455;29;20182;-83
2022/10/07 17:23:05;;;;;;;30.05;13.80;;;;;;;14.30;66.39;95616.69;4949478;29;20222;-84
2022/10/07 17:25:31;;;;;;;38.03;16.52;;;;;;;14.18;66.96;95623.69;4930762;29;20237;-82
2022/10/07 17:27:56;;;;;;;46.73;18.00;;;;;;;14.20;68.04;95664.00;4950764;28;20194;-82
2022/10/07 17:30:22;;;;;;;43.63;19.52;;;;;;;14.23;68.96;95676.81;4947301;29;20190;-81
2022/10/07 17:32:50;;;;;;;43.67;17.43;;;;;;;13.89;69.35;95617.16;4955134;28;20659;-82
2022/10/07 17:35:16;;;;;;;86.75;43.50;;;;;;;14.14;69.09;95659.56;4949062;28;20194;-83
2022/10/07 17:37:41;;;;;;;97.30;44.58;;;;;;;13.82;70.05;95608.44;4949411;29;20628;-83
2022/10/07 17:40:07;;;;;;;135.10;65.73;;;;;;;14.03;69.57;95661.03;4947109;29;20742;-82
2022/10/07 17:42:32;;;;;;;135.23;67.38;;;;;;;14.02;70.30;95669.19;4952238;29;20186;-82
2022/10/07 17:44:59;;;;;;;64.87;30.87;;;;;;;14.03;71.00;95670.81;4946307;29;20182;-81
2022/10/07 17:47:25;;;;;;;77.13;40.30;;;;;;;14.00;71.51;95669.44;4950034;29;20236;-81
2022/10/07 17:49:53;;;;;;;86.33;34.27;;;;;;;13.97;71.99;95677.78;4932495;29;20564;-81
2022/10/07 17:52:18;;;;;;;83.68;36.15;;;;;;;13.79;71.86;95661.78;4936305;29;20175;-81
2022/10/07 17:54:44;;;;;;;70.40;32.97;;;;;;;13.87;72.16;95680.06;4955798;29;20206;-83
2022/10/07 17:57:09;;;;;;;76.37;26.27;;;;;;;13.85;72.23;95682.91;4932512;29;20183;-81
2022/10/07 17:59:34;;;;;;;46.65;20.77;;;;;;;13.79;72.20;95686.41;4945004;29;20630;-82
2022/10/07 18:02:00;;;;;;;49.37;22.93;;;;;;;13.76;72.80;95689.47;4953388;29;20187;-81
2022/10/07 18:04:25;;;;;;;43.70;19.77;;;;;;;13.33;72.96;95622.28;4946517;29;20584;-82
2022/10/07 18:06:51;;;;;;;39.50;15.67;;;;;;;13.42;73.14;95672.09;4947963;29;20182;-82
2022/10/07 18:09:18;;;;;;;43.97;19.07;;;;;;;13.11;75.28;95683.31;4956232;29;20186;-81
2022/10/07 18:17:13;;;;;;;47.47;20.20;;;;;;;13.14;76.03;95682.13;4947671;29;20294;-81
2022/10/07 18:19:40;;;;;;;39.13;18.13;;;;;;;13.11;75.61;95677.22;4954537;28;20198;-81
2022/10/07 18:22:05;;;;;;;48.47;20.67;;;;;;;13.07;75.61;95676.00;4955579;29;20232;-82
2022/10/07 18:24:30;;;;;;;33.80;16.20;;;;;;;12.99;75.24;95660.34;4924791;29;20163;-82
2022/10/07 18:26:59;;;;;;;63.97;27.47;;;;;;;13.18;75.38;95692.09;4953778;29;20261;-82
2022/10/07 18:29:26;;;;;;;45.00;20.40;;;;;;;13.04;75.82;95673.78;4952864;29;20251;-82
2022/10/07 18:31:51;;;;;;;34.30;13.40;;;;;;;13.05;75.12;95696.56;4944388;29;20215;-82
2022/10/07 18:34:18;;;;;;;33.37;15.83;;;;;;;12.96;75.73;95680.09;4935156;29;20718;-83
2022/10/07 18:36:45;;;;;;;43.37;18.97;;;;;;;13.01;75.87;95690.03;4933160;29;20671;-82
2022/10/07 18:39:12;;;;;;;43.47;16.17;;;;;;;12.88;76.73;95668.91;4947477;29;20171;-83
2022/10/07 18:41:38;;;;;;;39.03;17.67;;;;;;;12.92;76.43;95685.97;4933973;29;20182;-83
2022/10/07 18:44:03;;;;;;;49.67;16.03;;;;;;;12.90;76.51;95694.09;4944420;28;20175;-84
2022/10/07 18:46:29;;;;;;;38.33;17.07;;;;;;;12.57;76.79;95645.75;4950652;28;20250;-84
2022/10/07 18:48:54;;;;;;;31.67;12.33;;;;;;;12.92;76.36;95685.97;4934806;29;20238;-82
2022/10/07 18:51:20;;;;;;;36.07;13.87;;;;;;;12.67;76.83;95648.81;4946451;29;20245;-84
2022/10/07 18:53:46;;;;;;;35.60;11.70;;;;;;;12.86;76.74;95674.41;4949739;28;20209;-83
2022/10/07 18:56:15;;;;;;;32.80;14.73;;;;;;;12.80;76.85;95685.78;4942105;29;20720;-82
2022/10/07 18:58:42;;;;;;;32.10;15.63;;;;;;;12.76;77.65;95682.75;4955481;29;20182;-83
2022/10/07 19:01:17;;;;;;;29.17;15.17;;;;;;;12.62;77.41;95664.47;4955207;29;20209;-83
2022/10/07 19:03:43;;;;;;;32.07;14.00;;;;;;;12.39;77.41;95641.88;4951195;29;20221;-82
2022/10/07 19:06:15;;;;;;;28.00;13.37;;;;;;;12.60;77.94;95683.16;4943349;29;20185;-82
2022/10/07 19:08:40;;;;;;;30.47;15.30;;;;;;;12.48;78.12;95684.75;4942265;29;20190;-82
2022/10/07 19:11:08;;;;;;;33.73;15.37;;;;;;;12.51;78.32;95683.53;4944855;29;20174;-81
2022/10/07 19:13:46;;;;;;;38.63;14.60;;;;;;;12.24;78.64;95651.84;4945923;29;20715;-82
2022/10/07 19:16:35;;;;;;;30.27;14.00;;;;;;;12.16;78.83;95648.56;4950128;29;20177;-80
2022/10/07 19:19:06;;;;;;;39.60;15.60;;;;;;;12.39;80.00;95691.25;4947792;29;20632;-80
2022/10/07 19:21:33;;;;;;;38.17;17.90;;;;;;;12.38;80.00;95685.16;4940772;29;20443;-81
2022/10/07 19:24:02;;;;;;;29.30;14.57;;;;;;;12.43;79.05;95685.38;4946721;28;20591;-80
2022/10/07 19:26:33;;;;;;;30.03;14.43;;;;;;;12.31;78.91;95657.94;4948766;29;20174;-81
2022/10/07 19:29:00;;;;;;;33.10;15.37;;;;;;;12.13;78.71;95630.47;4953617;29;20186;-81
2022/10/07 19:31:34;;;;;;;42.20;16.43;;;;;;;12.49;78.79;95691.66;4949031;28;20257;-80
2022/10/07 19:34:11;;;;;;;46.37;16.10;;;;;;;12.43;79.23;95695.94;4936203;29;20286;-80
2022/10/07 19:36:38;;;;;;;37.00;18.43;;;;;;;12.36;79.62;95691.66;4950835;29;20192;-80
2022/10/07 19:39:05;;;;;;;40.93;18.80;;;;;;;12.33;79.82;95697.34;4950042;29;20263;-80
2022/10/07 19:41:33;;;;;;;40.63;17.30;;;;;;;12.14;80.07;95675.16;4953914;29;20182;-81
2022/10/07 19:43:58;;;;;;;33.63;16.43;;;;;;;12.18;80.28;95692.25;4947857;29;20209;-81
2022/10/07 19:46:26;;;;;;;36.87;17.03;;;;;;;12.14;80.48;95695.47;4948661;28;20210;-81
2022/10/07 19:48:55;;;;;;;50.97;18.37;;;;;;;12.12;80.34;95698.28;4945654;29;20199;-80
2022/10/07 19:51:20;;;;;;;35.53;18.07;;;;;;;12.06;80.64;95694.63;4950944;29;20231;-82
2022/10/07 19:53:46;;;;;;;33.43;16.83;;;;;;;12.04;81.06;95690.56;4950819;29;20637;-81
2022/10/07 19:56:21;;;;;;;38.37;17.70;;;;;;;11.99;81.19;95685.06;4946880;29;20660;-81
2022/10/07 19:58:50;;;;;;;35.97;14.30;;;;;;;11.88;81.00;95673.25;4940041;29;20203;-82
2022/10/07 20:01:18;;;;;;;16.77;9.23;;;;;;;11.92;81.28;95692.16;4940010;29;20186;-81
2022/10/07 20:03:44;;;;;;;23.00;11.03;;;;;;;11.62;82.45;95679.22;4941600;29;20187;-81
2022/10/07 20:06:10;;;;;;;25.77;10.87;;;;;;;11.51;83.18;95695.59;4944588;29;20194;-80
2022/10/07 20:08:41;;;;;;;20.77;10.70;;;;;;;11.33;83.30;95690.03;4953663;29;20730;-80
2022/10/07 20:11:07;;;;;;;23.60;13.17;;;;;;;11.28;83.52;95685.34;4947289;29;20660;-81
2022/10/07 20:13:34;;;;;;;18.50;9.67;;;;;;;11.36;83.80;95697.56;4952606;29;20216;-81
2022/10/07 20:16:06;;;;;;;31.50;14.97;;;;;;;11.23;84.14;95700.94;4953271;29;20193;-81
2022/10/07 20:18:33;;;;;;;30.67;13.37;;;;;;;11.32;84.40;95688.44;4951796;29;20261;-81
2022/10/07 20:21:04;;;;;;;28.13;11.93;;;;;;;11.28;83.85;95674.00;4953290;28;20559;-81
2022/10/07 20:23:32;;;;;;;30.10;15.07;;;;;;;11.38;83.31;95687.63;4936821;29;20181;-81
2022/10/07 20:25:57;;;;;;;25.03;12.60;;;;;;;11.41;83.22;95689.91;4950070;28;20261;-82
2022/10/07 20:28:24;;;;;;;32.03;11.23;;;;;;;11.29;83.23;95673.00;4953759;28;20257;-84
2022/10/07 20:30:49;;;;;;;25.07;11.53;;;;;;;11.41;83.09;95687.25;4935657;29;20183;-81
2022/10/07 20:33:15;;;;;;;25.33;12.53;;;;;;;11.26;83.03;95673.38;4948964;29;20732;-82
2022/10/07 20:35:40;;;;;;;26.10;12.33;;;;;;;11.14;83.05;95649.41;4935341;29;20661;-83
2022/10/07 20:38:05;;;;;;;25.87;11.57;;;;;;;11.39;83.32;95694.53;4947295;28;20182;-82
2022/10/07 20:43:15;;;;;;;21.63;11.97;;;;;;;11.17;83.20;95650.81;4945499;29;20182;-84
2022/10/07 20:45:55;;;;;;;23.47;12.03;;;;;;;11.08;83.39;95641.44;4943540;29;20175;-83
2022/10/07 20:48:21;;;;;;;31.57;11.40;;;;;;;11.15;82.86;95652.84;4945684;29;20182;-83
2022/10/07 20:50:47;;;;;;;21.37;11.47;;;;;;;11.28;83.12;95687.16;4930019;29;20191;-82
2022/10/07 20:53:12;;;;;;;26.50;12.77;;;;;;;11.25;83.10;95680.47;4944593;28;20197;-83
2022/10/07 20:55:38;;;;;;;30.23;12.63;;;;;;;11.19;83.34;95678.59;4950377;29;20284;-83
2022/10/07 20:58:04;;;;;;;22.53;11.27;;;;;;;11.09;83.47;95672.06;4937483;29;20183;-82
2022/10/07 21:00:31;;;;;;;21.03;11.97;;;;;;;11.07;83.87;95674.09;4946666;29;20178;-83
2022/10/07 21:02:57;;;;;;;22.30;11.37;;;;;;;10.91;83.80;95656.75;4937599;29;20202;-82
2022/10/07 21:05:23;;;;;;;23.57;12.57;;;;;;;11.05;83.99;95676.91;4948712;29;20225;-82
2022/10/07 21:07:49;;;;;;;25.20;12.43;;;;;;;10.97;83.88;95663.88;4947783;29;20261;-82
2022/10/07 21:10:14;;;;;;;22.60;13.20;;;;;;;10.91;84.53;95652.28;4941060;29;20181;-82
2022/10/07 21:12:40;;;;;;;23.80;12.57;;;;;;;10.88;84.17;95647.41;4933326;29;20215;-82
2022/10/07 21:15:05;;;;;;;27.20;12.80;;;;;;;11.01;84.13;95669.56;4943050;29;20207;-83
2022/10/07 21:17:33;;;;;;;25.57;13.53;;;;;;;11.06;84.04;95681.19;4951882;29;20949;-82
2022/10/07 21:19:58;;;;;;;23.80;14.43;;;;;;;11.06;84.08;95677.72;4947303;29;20203;-82
2022/10/07 21:22:24;;;;;;;22.07;13.13;;;;;;;10.73;84.16;95630.88;4950160;28;20257;-82
2022/10/07 21:24:49;;;;;;;26.20;11.83;;;;;;;10.83;84.44;95655.06;4945921;29;20173;-82
2022/10/07 21:27:15;;;;;;;30.30;12.53;;;;;;;10.90;84.25;95671.72;4942345;29;20201;-82
2022/10/07 21:29:40;;;;;;;24.97;11.97;;;;;;;10.94;84.65;95678.25;4947858;29;20190;-82
2022/10/07 21:32:08;;;;;;;19.90;11.33;;;;;;;10.78;84.76;95648.75;4951625;29;20177;-81
2022/10/07 21:34:33;;;;;;;19.57;11.13;;;;;;;10.82;84.69;95658.72;4945209;29;20202;-82
2022/10/07 21:36:59;;;;;;;17.33;11.00;;;;;;;10.88;84.36;95657.13;4942940;28;20195;-82
2022/10/07 21:39:25;;;;;;;19.33;9.90;;;;;;;10.85;85.16;95666.22;4944116;29;20323;-82
2022/10/07 21:41:51;;;;;;;19.93;11.00;;;;;;;10.83;84.76;95670.06;4951748;29;20318;-82
2022/10/07 21:44:16;;;;;;;19.37;10.27;;;;;;;10.35;84.89;95601.47;4946505;28;20171;-82
2022/10/07 21:46:45;;;;;;;15.17;8.93;;;;;;;10.81;84.92;95666.81;4942602;29;20183;-82
2022/10/07 21:49:11;;;;;;;19.10;9.07;;;;;;;10.67;85.09;95650.09;4951314;29;20679;-81
2022/10/07 21:51:37;;;;;;;16.17;7.63;;;;;;;10.63;85.25;95637.53;4945518;29;20733;-83
2022/10/07 21:54:02;;;;;;;18.50;8.03;;;;;;;10.61;85.10;95636.88;4928197;29;20203;-82
2022/10/07 21:56:30;;;;;;;17.90;9.40;;;;;;;10.74;85.38;95656.22;4945385;29;20171;-82
2022/10/07 21:58:58;;;;;;;14.33;7.90;;;;;;;10.71;85.51;95647.91;4921672;29;20186;-82
2022/10/07 22:01:24;;;;;;;18.87;6.87;;;;;;;10.72;85.50;95645.09;4942769;29;20258;-82
2022/10/07 22:03:57;;;;;;;15.13;7.50;;;;;;;10.50;85.70;95615.34;4927817;29;20333;-82
2022/10/07 22:09:09;;;;;;;12.07;6.33;;;;;;;10.57;86.21;95639.06;4942361;29;20230;-82
2022/10/07 22:11:34;;;;;;;12.17;5.97;;;;;;;10.48;86.06;95622.59;4942415;29;20249;-82
2022/10/07 22:14:00;;;;;;;18.73;7.47;;;;;;;10.43;85.71;95619.75;4942220;29;20282;-82
2022/10/07 22:16:25;;;;;;;11.23;6.40;;;;;;;10.55;86.20;95635.84;4942151;29;20235;-82
2022/10/07 22:18:52;;;;;;;11.80;6.57;;;;;;;10.60;86.06;95638.72;4934549;29;20179;-82
2022/10/07 22:21:21;;;;;;;15.33;7.70;;;;;;;10.62;85.86;95641.97;4917192;29;20612;-82
2022/10/07 22:23:49;;;;;;;13.90;6.90;;;;;;;10.45;85.68;95615.13;4923624;29;20182;-82
2022/10/07 22:26:15;;;;;;;11.80;7.27;;;;;;;10.55;85.84;95633.22;4931467;29;20170;-82
2022/10/07 22:28:40;;;;;;;11.30;6.63;;;;;;;10.50;85.70;95627.69;4946956;29;20671;-82
2022/10/07 22:31:08;;;;;;;9.77;6.10;;;;;;;10.55;85.74;95638.47;4942340;29;20174;-81
2022/10/07 22:33:35;;;;;;;13.90;6.27;;;;;;;10.53;85.48;95632.59;4948353;29;20217;-81
2022/10/07 22:36:05;;;;;;;9.97;5.90;;;;;;;10.41;86.19;95621.75;4948626;29;20320;-81
2022/10/07 22:38:31;;;;;;;11.80;6.60;;;;;;;10.45;86.10;95636.16;4949518;29;20259;-81
2022/10/07 22:41:04;;;;;;;9.40;6.20;;;;;;;10.28;85.99;95605.06;4947353;29;20287;-81
2022/10/07 22:43:30;;;;;;;15.17;8.30;;;;;;;10.33;86.23;95626.34;4948312;29;20178;-81
2022/10/07 22:45:57;;;;;;;13.97;7.20;;;;;;;10.36;87.05;95631.22;4948338;28;20197;-81
2022/10/07 22:48:24;;;;;;;24.57;10.33;;;;;;;10.25;86.80;95611.50;4956614;29;20607;-81
2022/10/07 22:50:51;;;;;;;15.50;7.83;;;;;;;10.41;86.85;95624.38;4956385;29;20163;-81
2022/10/07 22:53:18;;;;;;;16.67;8.23;;;;;;;10.40;86.91;95627.19;4931030;29;20182;-81
2022/10/07 22:55:44;;;;;;;14.17;7.83;;;;;;;10.45;86.64;95628.28;4948044;29;20198;-81
2022/10/07 22:58:10;;;;;;;18.33;7.83;;;;;;;10.34;86.48;95604.28;4939972;29;20664;-81
2022/10/07 23:00:37;;;;;;;17.67;8.67;;;;;;;10.34;86.83;95596.38;4948121;29;20183;-81
2022/10/07 23:03:05;;;;;;;15.47;8.00;;;;;;;10.50;86.68;95614.53;4956327;29;20242;-81
2022/10/07 23:05:37;;;;;;;19.00;8.70;;;;;;;10.57;86.44;95624.09;4956036;29;20240;-81
2022/10/07 23:08:04;;;;;;;17.33;8.57;;;;;;;10.57;86.35;95618.84;4947853;29;20635;-81
2022/10/07 23:10:29;;;;;;;19.73;8.53;;;;;;;10.59;86.11;95622.09;4947854;29;20178;-82
2022/10/07 23:12:55;;;;;;;17.53;7.97;;;;;;;10.53;86.13;95614.97;4947726;29;20619;-81
2022/10/07 23:15:20;;;;;;;21.47;10.63;;;;;;;10.49;86.20;95615.53;4947748;29;20190;-82
2022/10/07 23:17:45;;;;;;;15.23;9.13;;;;;;;10.34;86.41;95593.75;4955993;29;20193;-82
2022/10/07 23:20:11;;;;;;;28.33;9.80;;;;;;;10.27;86.24;95587.63;4956397;28;20171;-82
2022/10/07 23:22:39;;;;;;;14.27;8.67;;;;;;;10.38;86.20;95600.28;4955658;29;20606;-82
2022/10/07 23:25:05;;;;;;;20.83;9.27;;;;;;;10.38;85.69;95616.84;4955744;29;20161;-82
2022/10/07 23:27:31;;;;;;;18.47;9.20;;;;;;;10.33;86.14;95611.38;4955902;29;20170;-82
2022/10/07 23:29:56;;;;;;;19.70;9.07;;;;;;;10.26;86.06;95597.34;4938439;29;20735;-82
2022/10/07 23:32:23;;;;;;;14.93;9.10;;;;;;;10.36;86.16;95618.06;4955543;29;20221;-83
2022/10/07 23:34:48;;;;;;;17.43;9.60;;;;;;;10.07;86.17;95582.16;4937359;29;20199;-83
2022/10/07 23:37:14;;;;;;;20.87;8.63;;;;;;;10.07;86.45;95588.25;4948732;29;20249;-82
2022/10/07 23:39:39;;;;;;;15.20;8.00;;;;;;;10.12;86.44;95590.28;4945601;29;20172;-82
2022/10/07 23:42:05;;;;;;;14.03;8.17;;;;;;;10.15;86.64;95603.09;4947224;29;20911;-82
2022/10/07 23:44:30;;;;;;;19.90;8.20;;;;;;;9.99;86.33;95572.59;4947318;29;20174;-82
2022/10/07 23:46:55;;;;;;;15.50;9.50;;;;;;;10.15;86.76;95595.19;4936310;29;20183;-83
2022/10/07 23:49:21;;;;;;;16.07;7.80;;;;;;;9.93;86.80;95556.75;4936134;29;20258;-82
2022/10/07 23:51:46;;;;;;;19.37;8.50;;;;;;;10.16;86.05;95591.56;4936122;29;20167;-83
2022/10/07 23:54:12;;;;;;;14.37;7.13;;;;;;;10.11;85.76;95592.13;4943937;29;20195;-82
2022/10/07 23:56:37;;;;;;;12.97;8.03;;;;;;;9.75;86.42;95542.25;4943960;29;20674;-82
2022/10/07 23:59:02;;;;;;;12.60;7.07;;;;;;;9.93;86.54;95583.06;4946270;29;20302;-82
